createdAt,value
2022-12-18T00:00:43.814Z,4.57
2022-12-18T00:05:50.474Z,4.43
2022-12-18T00:10:52.708Z,4.70
2022-12-18T00:15:56.668Z,4.07
2022-12-18T00:21:03.959Z,4.10
2022-12-18T00:26:08.908Z,3.53
2022-12-18T00:31:13.625Z,4.10
2022-12-18T00:36:24.603Z,3.27
2022-12-18T00:41:47.029Z,3.27
2022-12-18T00:46:49.797Z,3.20
2022-12-18T00:51:52.400Z,3.53
2022-12-18T00:56:56.380Z,4.60
2022-12-18T01:01:58.688Z,3.67
2022-12-18T01:07:01.183Z,3.67
2022-12-18T01:12:03.427Z,3.30
2022-12-18T01:17:06.195Z,3.63
2022-12-18T01:22:09.044Z,3.60
2022-12-18T01:27:11.353Z,3.73
2022-12-18T01:32:13.917Z,3.57
2022-12-18T01:37:17.197Z,3.90
2022-12-18T01:42:19.595Z,4.57
2022-12-18T01:47:43.108Z,3.77
2022-12-18T01:52:53.295Z,3.73
2022-12-18T01:57:57.377Z,3.38
2022-12-18T02:02:59.797Z,3.20
2022-12-18T02:08:13.739Z,3.47
2022-12-18T02:13:28.133Z,2.93
2022-12-18T02:18:57.284Z,3.27
2022-12-18T02:24:24.423Z,4.30
2022-12-18T02:29:43.088Z,3.50
2022-12-18T02:34:45.797Z,3.13
2022-12-18T02:39:52.826Z,3.23
2022-12-18T02:44:56.251Z,3.73
2022-12-18T02:50:31.781Z,2.90
2022-12-18T02:55:38.387Z,2.73
2022-12-18T03:00:55.124Z,2.80
2022-12-18T03:06:06.240Z,2.87
2022-12-18T03:11:12.108Z,3.53
2022-12-18T03:16:25.634Z,2.13
2022-12-18T03:21:33.510Z,3.30
2022-12-18T03:26:36.654Z,3.30
2022-12-18T03:31:41.712Z,3.03
2022-12-18T03:36:44.198Z,3.17
2022-12-18T03:41:50.503Z,3.70
2022-12-18T03:47:24.287Z,2.77
2022-12-18T03:52:38.812Z,3.40
2022-12-18T03:57:43.848Z,2.97
2022-12-18T04:02:51.056Z,3.17
2022-12-18T04:07:58.915Z,2.30
2022-12-18T04:13:01.421Z,3.17
2022-12-18T04:18:05.017Z,2.60
2022-12-18T04:23:14.853Z,3.13
2022-12-18T04:28:17.488Z,2.90
2022-12-18T04:33:20.054Z,3.30
2022-12-18T04:38:22.456Z,3.27
2022-12-18T04:43:34.085Z,3.10
2022-12-18T04:48:38.535Z,2.63
2022-12-18T04:53:41.159Z,3.07
2022-12-18T04:58:45.362Z,3.13
2022-12-18T05:03:47.936Z,3.57
2022-12-18T05:08:50.293Z,2.77
2022-12-18T05:13:52.529Z,3.00
2022-12-18T05:18:54.908Z,2.70
2022-12-18T05:23:57.135Z,2.83
2022-12-18T05:28:59.376Z,2.50
2022-12-18T05:34:01.597Z,3.20
2022-12-18T05:39:04.121Z,2.90
2022-12-18T05:44:06.658Z,2.80
2022-12-18T05:49:08.938Z,3.30
2022-12-18T05:54:11.248Z,3.00
2022-12-18T05:59:13.473Z,2.67
2022-12-18T06:04:15.983Z,2.23
2022-12-18T06:09:18.224Z,2.23
2022-12-18T06:14:20.435Z,3.33
2022-12-18T06:19:22.747Z,2.80
2022-12-18T06:24:24.969Z,2.87
2022-12-18T06:29:27.222Z,3.13
2022-12-18T06:34:32.147Z,3.40
2022-12-18T06:39:34.396Z,2.83
2022-12-18T06:44:37.098Z,2.33
2022-12-18T06:49:39.551Z,2.93
2022-12-18T06:54:41.758Z,4.13
2022-12-18T06:59:44.006Z,3.57
2022-12-18T07:04:46.195Z,3.10
2022-12-18T07:09:50.502Z,2.83
2022-12-18T07:14:52.688Z,2.67
2022-12-18T07:19:54.874Z,3.10
2022-12-18T07:24:57.140Z,3.03
2022-12-18T07:29:59.403Z,3.07
2022-12-18T07:35:01.590Z,2.83
2022-12-18T07:40:06.130Z,3.83
2022-12-18T07:45:08.669Z,3.37
2022-12-18T07:50:11.081Z,3.20
2022-12-18T07:55:13.349Z,2.80
2022-12-18T08:00:16.010Z,2.67
2022-12-18T08:05:18.593Z,3.00
2022-12-18T08:10:21.505Z,3.20
2022-12-18T08:15:23.931Z,2.47
2022-12-18T08:20:28.017Z,2.13
2022-12-18T08:25:30.233Z,2.80
2022-12-18T08:30:32.575Z,2.57
2022-12-18T08:35:44.078Z,2.50
2022-12-18T08:40:48.038Z,2.57
2022-12-18T08:45:50.380Z,2.43
2022-12-18T08:50:59.898Z,2.50
2022-12-18T09:01:06.161Z,2.13
2022-12-18T09:06:08.891Z,2.20
2022-12-18T09:11:16.816Z,2.40
2022-12-18T09:16:19.538Z,2.20
2022-12-18T09:21:22.428Z,2.67
2022-12-18T09:26:25.474Z,1.93
2022-12-18T09:31:27.722Z,2.00
2022-12-18T09:36:29.960Z,1.93
2022-12-18T09:41:56.967Z,2.27
2022-12-18T09:47:20.202Z,2.13
2022-12-18T09:52:57.203Z,2.30
2022-12-18T09:58:06.337Z,2.60
2022-12-18T10:03:14.823Z,2.03
2022-12-18T10:08:26.244Z,2.00
2022-12-18T10:13:43.565Z,2.30
2022-12-18T10:18:45.783Z,2.63
2022-12-18T10:24:03.760Z,2.70
2022-12-18T10:29:12.732Z,2.13
2022-12-18T10:34:16.116Z,2.00
2022-12-18T10:39:24.586Z,2.37
2022-12-18T10:44:29.572Z,2.17
2022-12-18T10:49:33.992Z,2.07
2022-12-18T10:54:36.676Z,2.30
2022-12-18T10:59:55.973Z,1.83
2022-12-18T11:04:58.197Z,1.52
2022-12-18T11:10:04.715Z,1.70
2022-12-18T11:15:07.832Z,1.70
2022-12-18T11:20:27.842Z,2.97
2022-12-18T11:25:32.572Z,3.07
2022-12-18T11:30:37.952Z,3.70
2022-12-18T11:35:53.269Z,1.53
2022-12-18T11:41:05.349Z,1.73
2022-12-18T11:46:17.671Z,1.83
2022-12-18T11:51:31.668Z,2.90
2022-12-18T11:56:38.015Z,5.83
2022-12-18T12:02:18.852Z,2.40
2022-12-18T12:07:59.128Z,3.40
2022-12-18T12:13:04.363Z,6.13
2022-12-18T12:18:15.945Z,3.77
2022-12-18T12:23:27.863Z,3.33
2022-12-18T12:28:36.293Z,3.03
2022-12-18T12:33:54.810Z,3.50
2022-12-18T12:38:59.686Z,4.30
2022-12-18T12:44:05.832Z,4.37
2022-12-18T12:49:16.480Z,7.03
2022-12-18T12:54:25.065Z,7.67
2022-12-18T12:59:52.584Z,5.35
2022-12-18T13:05:01.798Z,4.30
2022-12-18T13:10:19.178Z,5.53
2022-12-18T13:15:44.489Z,5.27
2022-12-18T13:21:04.121Z,5.70
2022-12-18T13:26:12.167Z,5.43
2022-12-18T13:31:16.252Z,4.90
2022-12-18T13:36:27.359Z,4.30
2022-12-18T13:41:30.438Z,4.70
2022-12-18T13:46:32.717Z,5.07
2022-12-18T13:51:37.600Z,3.77
2022-12-18T13:56:45.306Z,4.00
2022-12-18T14:01:54.815Z,3.20
2022-12-18T14:07:15.126Z,2.73
2022-12-18T14:12:46.697Z,2.53
2022-12-18T14:17:52.456Z,1.90
2022-12-18T14:22:55.792Z,2.80
2022-12-18T14:28:16.697Z,2.40
2022-12-18T14:33:25.757Z,2.40
2022-12-18T14:38:36.125Z,3.70
2022-12-18T14:43:41.598Z,3.03
2022-12-18T14:48:44.670Z,3.10
2022-12-18T14:53:55.817Z,2.30
2022-12-18T14:59:04.625Z,2.67
2022-12-18T15:04:26.647Z,2.73
2022-12-18T15:09:29.063Z,2.80
2022-12-18T15:14:33.015Z,3.30
2022-12-18T15:19:40.597Z,4.03
2022-12-18T15:24:44.110Z,3.60
2022-12-18T15:30:17.406Z,2.87
2022-12-18T15:35:21.656Z,5.27
2022-12-18T15:40:25.480Z,3.13
2022-12-18T15:45:28.075Z,2.87
2022-12-18T15:50:30.475Z,2.50
2022-12-18T15:55:54.235Z,2.87
2022-12-18T16:01:00.159Z,2.60
2022-12-18T16:06:04.165Z,2.73
2022-12-18T16:11:07.210Z,4.13
2022-12-18T16:16:09.999Z,3.37
2022-12-18T16:21:12.495Z,5.93
2022-12-18T16:26:14.810Z,5.53
2022-12-18T16:31:17.169Z,3.63
2022-12-18T16:36:19.496Z,3.63
2022-12-18T16:41:34.061Z,4.57
2022-12-18T16:46:39.442Z,4.27
2022-12-18T16:51:42.485Z,5.97
2022-12-18T16:56:45.565Z,4.33
2022-12-18T17:01:48.585Z,3.03
2022-12-18T17:06:54.282Z,5.47
2022-12-18T17:12:04.035Z,4.70
2022-12-18T17:17:20.824Z,3.80
2022-12-18T17:22:24.041Z,4.77
2022-12-18T17:27:26.352Z,4.50
2022-12-18T17:32:32.336Z,4.10
2022-12-18T17:37:34.634Z,3.47
2022-12-18T17:42:37.231Z,3.57
2022-12-18T17:47:41.992Z,3.57
2022-12-18T17:52:44.673Z,3.77
2022-12-18T17:57:47.007Z,4.30
2022-12-18T18:02:49.548Z,4.70
2022-12-18T18:07:52.218Z,5.43
2022-12-18T18:13:18.141Z,4.93
2022-12-18T18:18:22.864Z,4.63
2022-12-18T18:23:29.055Z,4.40
2022-12-18T18:28:31.394Z,4.77
2022-12-18T18:33:34.244Z,4.53
2022-12-18T18:38:43.056Z,4.23
2022-12-18T18:43:50.041Z,5.53
2022-12-18T18:48:52.563Z,4.97
2022-12-18T18:53:56.168Z,4.47
2022-12-18T18:58:58.838Z,4.93
2022-12-18T19:04:04.271Z,4.70
2022-12-18T19:09:06.956Z,6.27
2022-12-18T19:14:11.430Z,6.27
2022-12-18T19:19:14.363Z,4.30
2022-12-18T19:24:16.913Z,5.60
2022-12-18T19:29:19.211Z,4.67
2022-12-18T19:34:21.711Z,6.70
2022-12-18T19:39:24.112Z,6.67
2022-12-18T19:44:27.759Z,6.30
2022-12-18T19:49:30.950Z,5.53
2022-12-18T19:54:33.219Z,5.30
2022-12-18T19:59:36.144Z,5.37
2022-12-18T20:04:39.585Z,4.90
2022-12-18T20:09:41.916Z,5.73
2022-12-18T20:14:44.732Z,6.70
2022-12-18T20:19:49.617Z,5.50
2022-12-18T20:24:51.948Z,5.43
2022-12-18T20:29:54.189Z,5.83
2022-12-18T20:34:58.872Z,5.43
2022-12-18T20:40:01.121Z,5.97
2022-12-18T20:45:06.513Z,5.80
2022-12-18T20:50:09.004Z,4.27
2022-12-18T20:55:11.294Z,4.00
2022-12-18T21:00:14.094Z,4.50
2022-12-18T21:05:21.219Z,3.73
2022-12-18T21:10:23.442Z,3.13
2022-12-18T21:15:28.796Z,3.37
2022-12-18T21:20:31.335Z,4.10
2022-12-18T21:25:33.746Z,3.73
2022-12-18T21:30:36.020Z,3.23
2022-12-18T21:35:38.288Z,3.27
2022-12-18T21:40:43.292Z,4.07
2022-12-18T21:45:45.681Z,3.10
2022-12-18T21:50:47.929Z,2.63
2022-12-18T21:56:00.574Z,3.33
2022-12-18T22:01:03.129Z,2.97
2022-12-18T22:06:09.435Z,2.40
2022-12-18T22:11:12.928Z,2.63
2022-12-18T22:16:27.621Z,2.77
2022-12-18T22:21:32.211Z,2.00
2022-12-18T22:26:39.881Z,1.93
2022-12-18T22:31:42.854Z,1.70
2022-12-18T22:36:47.245Z,2.07
2022-12-18T22:41:49.995Z,2.90
2022-12-18T22:47:00.802Z,1.80
2022-12-18T22:52:09.789Z,2.33
2022-12-18T22:57:12.161Z,1.30
2022-12-18T23:02:14.590Z,2.03
2022-12-18T23:07:17.436Z,1.63
2022-12-18T23:12:19.895Z,2.40
2022-12-18T23:17:22.215Z,1.60
2022-12-18T23:22:24.562Z,1.60
2022-12-18T23:27:26.858Z,1.53
2022-12-18T23:32:29.041Z,1.50
2022-12-18T23:37:57.634Z,1.23
2022-12-18T23:42:53.420Z,2.70
2022-12-18T23:47:55.649Z,1.47
2022-12-18T23:53:03.248Z,1.40
2022-12-18T23:58:09.310Z,2.00
